Time;durP1;ratioP1;P1;durP2;ratioP2;P2;SDS_P1;SDS_P2;PMS_P1;PMS_P2;Temp;Humidity;BMP_temperature;BMP_pressure;BME280_temperature;BME280_humidity;BME280_pressure;Samples;Min_cycle;Max_cycle;Signal;HPM_P1;HPM_P2
2023/09/26 13:01:09;;;;;;;9.48;7.07;;;20.50;99.90;;;;;;5000049;22;20109;-82
2023/09/26 13:03:34;;;;;;;11.30;6.28;;;20.50;99.90;;;;;;4943615;28;20482;-82
2023/09/26 13:06:00;;;;;;;15.35;7.00;;;20.50;99.90;;;;;;4928316;28;20151;-82
2023/09/26 13:08:26;;;;;;;12.80;7.57;;;20.60;99.90;;;;;;4927784;28;20074;-82
2023/09/26 13:10:51;;;;;;;10.05;6.55;;;20.50;99.90;;;;;;4944052;28;20039;-81
2023/09/26 13:13:17;;;;;;;8.10;6.00;;;20.50;99.90;;;;;;4947056;28;20129;-82
2023/09/26 13:15:43;;;;;;;10.02;6.95;;;20.60;99.90;;;;;;4930909;28;20038;-82
2023/09/26 13:18:10;;;;;;;9.50;6.60;;;20.60;99.90;;;;;;4963413;28;20049;-82
2023/09/26 13:20:35;;;;;;;9.80;7.53;;;20.60;99.90;;;;;;4963126;28;20088;-82
2023/09/26 13:23:03;;;;;;;14.02;7.55;;;20.70;99.90;;;;;;4962818;28;20144;-81
2023/09/26 13:25:29;;;;;;;12.88;9.27;;;20.80;99.90;;;;;;4931669;28;20039;-82
2023/09/26 13:27:55;;;;;;;13.02;8.00;;;20.70;99.90;;;;;;4931097;28;20061;-82
2023/09/26 13:30:20;;;;;;;11.07;8.20;;;20.70;99.90;;;;;;4946476;28;20510;-82
2023/09/26 13:32:46;;;;;;;10.52;8.10;;;20.80;99.90;;;;;;4946755;28;20100;-82
2023/09/26 13:35:12;;;;;;;11.35;7.68;;;20.80;99.90;;;;;;4962853;28;20049;-82
2023/09/26 13:37:37;;;;;;;10.88;7.35;;;21.00;99.90;;;;;;4946584;28;20042;-82
2023/09/26 13:40:04;;;;;;;12.95;8.23;;;21.10;99.90;;;;;;4946510;28;20125;-81
2023/09/26 13:42:30;;;;;;;12.25;8.55;;;21.10;99.90;;;;;;4930786;28;20101;-82
2023/09/26 13:44:56;;;;;;;10.68;8.10;;;21.10;99.90;;;;;;4945552;28;20065;-82
2023/09/26 13:47:21;;;;;;;9.75;7.40;;;21.10;99.90;;;;;;4958525;28;20035;-81
2023/09/26 13:49:47;;;;;;;9.50;7.50;;;21.10;99.90;;;;;;4911596;28;20098;-82
2023/09/26 13:52:13;;;;;;;9.57;7.55;;;21.10;99.90;;;;;;4920604;28;20046;-82
2023/09/26 13:54:39;;;;;;;12.13;7.72;;;21.00;99.90;;;;;;4956093;28;20394;-81
2023/09/26 13:57:05;;;;;;;10.27;6.82;;;21.00;99.90;;;;;;4927116;28;20406;-82
2023/09/26 13:59:30;;;;;;;11.27;6.95;;;21.00;99.90;;;;;;4911429;28;20042;-82
2023/09/26 14:01:56;;;;;;;8.90;5.85;;;21.00;99.90;;;;;;4957541;28;20047;-82
2023/09/26 14:04:22;;;;;;;7.20;5.70;;;21.00;99.90;;;;;;4942803;28;20047;-82
2023/09/26 14:06:47;;;;;;;9.93;6.03;;;21.00;99.90;;;;;;4926876;28;20039;-82
2023/09/26 14:09:13;;;;;;;8.75;4.97;;;21.00;99.90;;;;;;4927743;28;20034;-83
2023/09/26 14:11:39;;;;;;;7.35;5.15;;;21.00;99.90;;;;;;4924569;28;20082;-81
2023/09/26 14:14:04;;;;;;;7.57;4.63;;;21.00;99.90;;;;;;4969682;28;20048;-81
2023/09/26 14:16:30;;;;;;;8.35;5.38;;;20.90;99.90;;;;;;4951371;28;20050;-82
2023/09/26 14:18:56;;;;;;;8.55;5.63;;;20.90;99.90;;;;;;4929496;28;20431;-82
2023/09/26 14:21:23;;;;;;;9.10;6.13;;;20.80;99.90;;;;;;4924053;29;20035;-81
2023/09/26 14:23:49;;;;;;;9.05;6.35;;;20.80;99.90;;;;;;4925820;28;20043;-81
2023/09/26 14:26:15;;;;;;;11.02;7.22;;;20.80;99.90;;;;;;4926699;28;20050;-82
2023/09/26 14:28:41;;;;;;;12.73;6.68;;;20.80;99.90;;;;;;4942273;28;20410;-82
2023/09/26 14:31:08;;;;;;;12.25;6.95;;;20.80;99.90;;;;;;4942240;28;20138;-81
2023/09/26 14:33:34;;;;;;;10.35;7.15;;;20.80;99.90;;;;;;4926645;28;20483;-81
2023/09/26 14:36:01;;;;;;;11.60;6.60;;;20.80;99.90;;;;;;4927441;28;20042;-81
2023/09/26 14:38:26;;;;;;;10.68;6.97;;;20.80;99.90;;;;;;4926173;28;20482;-81
2023/09/26 14:40:53;;;;;;;10.40;6.68;;;20.80;99.90;;;;;;4910454;28;20050;-82
2023/09/26 14:43:20;;;;;;;8.93;6.78;;;20.90;99.90;;;;;;4938807;29;20122;-81
2023/09/26 14:45:45;;;;;;;13.43;7.45;;;20.90;99.90;;;;;;4950572;28;20066;-81
2023/09/26 14:48:11;;;;;;;12.57;7.95;;;20.90;99.90;;;;;;4926092;28;20042;-82
2023/09/26 14:50:37;;;;;;;10.05;6.07;;;20.90;99.90;;;;;;4923132;28;20035;-82
2023/09/26 14:53:02;;;;;;;11.43;6.88;;;20.90;99.90;;;;;;4923497;28;20035;-82
2023/09/26 14:55:29;;;;;;;11.90;7.22;;;20.90;99.90;;;;;;4937459;28;20042;-82
2023/09/26 14:57:55;;;;;;;10.48;7.15;;;20.90;99.90;;;;;;4953999;28;20540;-82
2023/09/26 15:00:21;;;;;;;12.90;6.85;;;20.90;99.90;;;;;;4925443;28;20141;-81
2023/09/26 15:02:47;;;;;;;12.25;7.22;;;20.90;99.90;;;;;;4922535;28;20123;-82
2023/09/26 15:11:14;;;;;;;11.90;8.02;;;20.80;99.90;;;;;;5278902;23;20158;-86
